Time;durP1;ratioP1;P1;durP2;ratioP2;P2;SDS_P1;SDS_P2;PMS_P1;PMS_P2;Temp;Humidity;BMP_temperature;BMP_pressure;BME280_temperature;BME280_humidity;BME280_pressure;Samples;Min_cycle;Max_cycle;Signal;HPM_P1;HPM_P2
2023/08/10 00:01:03;;;;;;;5.93;2.08;;;;;;;-144.48;100.00;62369.91;4972219;28;20126;-70
2023/08/10 00:03:28;;;;;;;5.20;1.88;;;;;;;-144.48;100.00;62369.91;4971412;28;20030;-71
2023/08/10 00:05:54;;;;;;;5.13;1.90;;;;;;;-144.48;100.00;62369.91;4958970;28;20095;-70
2023/08/10 00:08:19;;;;;;;5.78;1.42;;;;;;;-144.48;100.00;62369.91;4970331;28;20453;-69
2023/08/10 00:10:49;;;;;;;3.10;1.67;;;;;;;-144.48;100.00;62369.91;4958147;28;20338;-72
2023/08/10 00:13:14;;;;;;;2.70;1.40;;;;;;;-144.48;100.00;62369.91;4969341;28;20034;-69
2023/08/10 00:15:40;;;;;;;3.80;1.40;;;;;;;-144.48;100.00;62369.91;4956624;28;20175;-71
2023/08/10 00:18:06;;;;;;;3.95;1.70;;;;;;;-144.48;100.00;62369.91;4959258;28;20030;-71
2023/08/10 00:20:32;;;;;;;4.15;1.42;;;;;;;-144.48;100.00;62369.91;4956746;28;20026;-71
2023/08/10 00:22:57;;;;;;;4.15;2.03;;;;;;;-144.48;100.00;62369.91;4963957;28;20027;-71
2023/08/10 00:25:23;;;;;;;6.85;1.95;;;;;;;-144.48;100.00;62369.91;4952774;28;20031;-73
2023/08/10 00:27:48;;;;;;;6.88;1.52;;;;;;;-144.48;100.00;62369.91;4968480;28;20559;-72
2023/08/10 00:30:14;;;;;;;3.15;1.60;;;;;;;-144.48;100.00;62369.91;4956633;28;20149;-69
2023/08/10 00:32:39;;;;;;;3.17;1.45;;;;;;;-144.48;100.00;62369.91;4951668;28;20536;-73
2023/08/10 00:35:05;;;;;;;3.80;1.50;;;;;;;-144.48;100.00;62369.91;4963147;28;20026;-73
2023/08/10 00:37:31;;;;;;;5.15;1.65;;;;;;;-144.48;100.00;62369.91;4959931;28;20109;-72
2023/08/10 00:39:56;;;;;;;6.10;1.70;;;;;;;-144.48;100.00;62369.91;4958492;28;20098;-73
2023/08/10 00:42:22;;;;;;;7.97;1.70;;;;;;;-144.48;100.00;62369.91;4964636;28;20512;-71
2023/08/10 00:44:47;;;;;;;4.32;1.70;;;;;;;-144.48;100.00;62369.91;4957399;28;20067;-73
2023/08/10 00:47:14;;;;;;;2.97;1.73;;;;;;;-144.48;100.00;62369.91;4957170;28;20041;-68
2023/08/10 00:49:40;;;;;;;6.38;1.90;;;;;;;-144.48;100.00;62369.91;4954105;28;20050;-72
2023/08/10 00:52:06;;;;;;;7.85;1.85;;;;;;;-144.48;100.00;62369.91;4958842;28;20040;-70
2023/08/10 00:54:31;;;;;;;3.63;1.92;;;;;;;-144.48;100.00;62369.91;4957627;28;20093;-70
2023/08/10 00:56:58;;;;;;;3.95;1.92;;;;;;;-144.48;100.00;62369.91;4962664;28;20031;-70
2023/08/10 00:59:25;;;;;;;5.03;2.00;;;;;;;-144.48;100.00;62369.91;4966683;28;20069;-68
2023/08/10 01:01:50;;;;;;;4.05;1.90;;;;;;;-144.48;100.00;62369.91;4951243;28;20034;-72
2023/08/10 01:04:16;;;;;;;7.00;2.00;;;;;;;-144.48;100.00;62369.91;4964723;28;20110;-66
2023/08/10 01:06:54;;;;;;;5.40;2.05;;;;;;;-144.48;100.00;62369.91;4962146;28;20031;-70
2023/08/10 01:09:22;;;;;;;4.40;1.85;;;;;;;-144.48;100.00;62369.91;4965923;28;20086;-71
2023/08/10 01:12:23;;;;;;;3.88;1.60;;;;;;;-144.48;100.00;62369.91;4961039;28;20027;-67
2023/08/10 01:15:12;;;;;;;4.65;1.70;;;;;;;-144.48;100.00;62369.91;4961957;28;20030;-71
2023/08/10 01:17:43;;;;;;;4.78;1.73;;;;;;;-144.48;100.00;62369.91;4953215;28;20026;-72
2023/08/10 01:20:09;;;;;;;4.20;1.70;;;;;;;-144.48;100.00;62369.91;4958183;28;20019;-71
2023/08/10 01:22:55;;;;;;;3.55;1.50;;;;;;;-144.48;100.00;62369.91;4951292;28;20030;-71
2023/08/10 01:25:22;;;;;;;8.15;1.70;;;;;;;-144.48;100.00;62369.91;4964439;28;20069;-71
2023/08/10 01:27:49;;;;;;;6.43;2.10;;;;;;;-144.48;100.00;62369.91;4967270;28;20023;-72
2023/08/10 01:30:15;;;;;;;4.50;1.90;;;;;;;-144.48;100.00;62369.91;4950866;28;20142;-72
2023/08/10 01:32:40;;;;;;;9.13;2.10;;;;;;;-144.48;100.00;62369.91;4958422;28;20516;-70
2023/08/10 01:35:06;;;;;;;5.30;1.77;;;;;;;-144.48;100.00;62369.91;4969169;28;20019;-68
2023/08/10 01:37:35;;;;;;;5.72;2.15;;;;;;;-144.48;100.00;62369.91;4961470;28;20079;-72
2023/08/10 01:40:01;;;;;;;3.30;1.50;;;;;;;-144.48;100.00;62369.91;4956679;28;20019;-70
2023/08/10 01:42:26;;;;;;;3.92;1.85;;;;;;;-144.48;100.00;62369.91;4970049;28;20469;-68
2023/08/10 01:44:52;;;;;;;10.40;1.98;;;;;;;-144.48;100.00;62369.91;4952377;28;20054;-70
2023/08/10 01:47:26;;;;;;;4.55;2.08;;;;;;;-144.48;100.00;62369.91;5003328;22;20480;-67
2023/08/10 01:49:56;;;;;;;4.70;1.88;;;;;;;-144.48;100.00;62369.91;4996837;28;20034;-67
2023/08/10 01:52:28;;;;;;;5.25;2.10;;;;;;;-144.48;100.00;62369.91;5010760;28;20029;-68
2023/08/10 01:54:54;;;;;;;7.55;1.88;;;;;;;-144.48;100.00;62369.91;5006732;28;20130;-68
2023/08/10 01:57:20;;;;;;;5.65;2.25;;;;;;;-144.48;100.00;62369.91;5001955;28;20549;-68
2023/08/10 01:59:45;;;;;;;7.18;1.90;;;;;;;-144.48;100.00;62369.91;5008865;28;20022;-68
2023/08/10 02:02:11;;;;;;;3.10;1.70;;;;;;;-144.48;100.00;62369.91;5010886;28;20025;-68
2023/08/10 02:04:37;;;;;;;7.43;2.28;;;;;;;-144.48;100.00;62369.91;5010013;28;20822;-68
2023/08/10 02:07:02;;;;;;;6.05;2.17;;;;;;;-144.48;100.00;62369.91;5010118;28;20097;-66
2023/08/10 02:09:28;;;;;;;5.38;2.08;;;;;;;-144.48;100.00;62369.91;5009451;28;20026;-68
2023/08/10 02:11:54;;;;;;;9.32;2.15;;;;;;;-144.48;100.00;62369.91;5008867;28;20042;-68
2023/08/10 02:14:19;;;;;;;6.80;2.40;;;;;;;-144.48;100.00;62369.91;5009980;28;20129;-69
2023/08/10 02:16:45;;;;;;;4.78;1.92;;;;;;;-144.48;100.00;62369.91;5010312;28;20026;-68
2023/08/10 02:19:10;;;;;;;11.98;2.15;;;;;;;-144.48;100.00;62369.91;5009511;28;20034;-68
2023/08/10 02:21:35;;;;;;;6.25;2.67;;;;;;;-144.48;100.00;62369.91;5009827;28;20029;-71
2023/08/10 02:24:01;;;;;;;3.67;1.88;;;;;;;-144.48;100.00;62369.91;5009246;28;20032;-68
2023/08/10 02:26:26;;;;;;;4.88;1.67;;;;;;;-144.48;100.00;62369.91;5009896;28;20552;-67
2023/08/10 02:28:51;;;;;;;13.63;1.80;;;;;;;-144.48;100.00;62369.91;5010075;28;20021;-67
2023/08/10 02:31:17;;;;;;;3.85;1.50;;;;;;;-144.48;100.00;62369.91;5009116;28;20427;-69
2023/08/10 02:33:43;;;;;;;8.82;2.10;;;;;;;-144.48;100.00;62369.91;5009798;28;20029;-68
2023/08/10 02:36:08;;;;;;;5.95;1.77;;;;;;;-144.48;100.00;62369.91;5006391;28;20026;-70
2023/08/10 02:38:34;;;;;;;5.00;2.17;;;;;;;-144.48;100.00;62369.91;5010065;28;20033;-68
2023/08/10 02:40:59;;;;;;;4.53;1.70;;;;;;;-144.48;100.00;62369.91;5009475;28;20491;-69
2023/08/10 02:43:24;;;;;;;3.90;1.70;;;;;;;-144.48;100.00;62369.91;5009363;28;20427;-69
2023/08/10 02:45:50;;;;;;;7.97;2.10;;;;;;;-144.48;100.00;62369.91;5009221;28;20064;-68
2023/08/10 02:48:15;;;;;;;6.70;1.60;;;;;;;-144.48;100.00;62369.91;5007586;28;20501;-69
2023/08/10 02:50:41;;;;;;;9.35;2.10;;;;;;;-144.48;100.00;62369.91;5009345;28;20487;-67
2023/08/10 02:53:06;;;;;;;7.50;2.00;;;;;;;-144.48;100.00;62369.91;5008457;28;20585;-67
2023/08/10 02:55:31;;;;;;;4.57;1.80;;;;;;;-144.48;100.00;62369.91;5009664;28;20021;-67
2023/08/10 02:57:57;;;;;;;6.07;2.58;;;;;;;-144.48;100.00;62369.91;5010271;28;20064;-67
2023/08/10 03:00:22;;;;;;;6.95;1.80;;;;;;;-144.48;100.00;62369.91;5009122;28;20045;-70
2023/08/10 03:02:50;;;;;;;4.43;1.90;;;;;;;-144.48;100.00;62369.91;5008224;28;20036;-69
2023/08/10 03:05:18;;;;;;;11.07;2.90;;;;;;;-144.48;100.00;62369.91;5007940;28;20036;-67
2023/08/10 03:07:44;;;;;;;4.93;1.87;;;;;;;-144.48;100.00;62369.91;5006897;28;20561;-67
2023/08/10 03:10:11;;;;;;;13.70;2.45;;;;;;;-144.48;100.00;62369.91;5008779;28;20768;-69
2023/08/10 03:12:37;;;;;;;4.28;1.80;;;;;;;-144.48;100.00;62369.91;5009355;28;20022;-67
2023/08/10 03:15:05;;;;;;;10.65;1.83;;;;;;;-144.48;100.00;62369.91;5008626;28;20025;-69
2023/08/10 03:17:31;;;;;;;4.28;1.88;;;;;;;-144.48;100.00;62369.91;5008414;28;20546;-67
2023/08/10 03:19:57;;;;;;;5.55;1.90;;;;;;;-144.48;100.00;62369.91;5008785;28;20108;-68
2023/08/10 03:22:25;;;;;;;9.52;2.08;;;;;;;-144.48;100.00;62369.91;5007878;28;20029;-69
2023/08/10 03:24:52;;;;;;;4.72;1.83;;;;;;;-144.48;100.00;62369.91;5008936;28;20038;-69
2023/08/10 03:27:17;;;;;;;4.25;1.90;;;;;;;-144.48;100.00;62369.91;5008344;28;20125;-67
2023/08/10 03:29:43;;;;;;;9.35;1.90;;;;;;;-144.48;100.00;62369.91;5009521;28;20160;-70
2023/08/10 03:32:08;;;;;;;5.50;1.90;;;;;;;-144.48;100.00;62369.91;5009166;28;20645;-69
2023/08/10 03:34:33;;;;;;;6.85;2.13;;;;;;;-144.48;100.00;62369.91;5018286;28;20029;-68
2023/08/10 03:36:59;;;;;;;4.00;1.90;;;;;;;-144.48;100.00;62369.91;5009235;28;20034;-68
2023/08/10 03:39:24;;;;;;;7.43;1.73;;;;;;;-144.48;100.00;62369.91;5008796;28;20599;-69
2023/08/10 03:41:50;;;;;;;3.30;1.67;;;;;;;-144.48;100.00;62369.91;5008962;28;20055;-70
2023/08/10 03:44:16;;;;;;;8.73;1.98;;;;;;;-144.48;100.00;62369.91;5008449;28;20022;-69
2023/08/10 03:46:41;;;;;;;3.13;1.75;;;;;;;-144.48;100.00;62369.91;5009580;28;20380;-70
2023/08/10 03:49:07;;;;;;;5.35;2.05;;;;;;;-144.48;100.00;62369.91;5008210;28;20100;-68
2023/08/10 03:51:32;;;;;;;6.65;2.20;;;;;;;-144.48;100.00;62369.91;5008304;28;20113;-68
2023/08/10 03:53:57;;;;;;;7.18;2.22;;;;;;;-144.48;100.00;62369.91;5008563;28;20018;-70
2023/08/10 03:56:23;;;;;;;4.55;1.90;;;;;;;-144.48;100.00;62369.91;5008874;28;20103;-68
2023/08/10 03:58:48;;;;;;;6.10;2.10;;;;;;;-144.48;100.00;62369.91;5008451;28;20030;-69
2023/08/10 04:01:14;;;;;;;11.70;2.85;;;;;;;-144.48;100.00;62369.91;5008894;28;20026;-68
2023/08/10 04:03:39;;;;;;;5.80;2.17;;;;;;;-144.48;100.00;62369.91;5008190;28;20033;-65
2023/08/10 04:06:05;;;;;;;4.65;1.85;;;;;;;-144.48;100.00;62369.91;5008002;28;20080;-69
2023/08/10 04:08:30;;;;;;;6.80;2.28;;;;;;;-144.48;100.00;62369.91;5008721;28;20136;-67
2023/08/10 04:10:55;;;;;;;6.18;2.00;;;;;;;-144.48;100.00;62369.91;5008301;28;20439;-68
2023/08/10 04:13:21;;;;;;;13.55;2.33;;;;;;;-144.48;100.00;62369.91;5008610;28;20119;-68
2023/08/10 04:15:48;;;;;;;4.88;1.75;;;;;;;-144.48;100.00;62369.91;5008022;28;20113;-69
2023/08/10 04:18:13;;;;;;;13.18;2.70;;;;;;;-144.48;100.00;62369.91;5006716;28;20125;-68
2023/08/10 04:20:39;;;;;;;4.57;2.15;;;;;;;-144.48;100.00;62369.91;5008645;28;20105;-66
2023/08/10 04:23:05;;;;;;;3.55;1.75;;;;;;;-144.48;100.00;62369.91;5007851;28;20026;-68
2023/08/10 04:25:30;;;;;;;5.18;2.35;;;;;;;-144.48;100.00;62369.91;5008254;28;20021;-69
2023/08/10 04:27:55;;;;;;;4.90;2.33;;;;;;;-144.48;100.00;62369.91;5008017;28;20033;-68
2023/08/10 04:30:22;;;;;;;11.35;2.20;;;;;;;-144.48;100.00;62369.91;5008568;28;20030;-68
2023/08/10 04:32:48;;;;;;;3.83;1.92;;;;;;;-144.48;100.00;62369.91;5008702;28;20026;-68
2023/08/10 04:35:13;;;;;;;4.78;2.20;;;;;;;-144.48;100.00;62369.91;5012447;28;20021;-67
2023/08/10 04:37:38;;;;;;;12.00;2.42;;;;;;;-144.48;100.00;62369.91;5009725;28;20137;-67
2023/08/10 04:40:09;;;;;;;3.97;1.85;;;;;;;-144.48;100.00;62369.91;5012537;28;20025;-69
2023/08/10 04:42:37;;;;;;;13.75;2.35;;;;;;;-144.48;100.00;62369.91;5008885;28;20080;-68
2023/08/10 04:45:04;;;;;;;6.00;2.20;;;;;;;-144.48;100.00;62369.91;5003516;28;20025;-69
2023/08/10 04:47:30;;;;;;;4.72;1.80;;;;;;;-144.48;100.00;62369.91;5003048;28;20088;-66
2023/08/10 04:49:55;;;;;;;4.80;1.85;;;;;;;-144.48;100.00;62369.91;4998977;28;20030;-70
2023/08/10 04:52:21;;;;;;;4.45;1.90;;;;;;;-144.48;100.00;62369.91;4999555;28;20479;-68
2023/08/10 04:54:46;;;;;;;7.60;2.47;;;;;;;-144.48;100.00;62369.91;5002937;28;20534;-68
2023/08/10 04:57:11;;;;;;;8.52;2.17;;;;;;;-144.48;100.00;62369.91;5001105;28;20112;-69
2023/08/10 04:59:36;;;;;;;8.43;2.22;;;;;;;-144.48;100.00;62369.91;5002790;28;20040;-66
2023/08/10 05:02:02;;;;;;;4.18;1.90;;;;;;;-144.48;100.00;62369.91;5000235;28;20037;-68
2023/08/10 05:04:27;;;;;;;5.15;1.88;;;;;;;-144.48;100.00;62369.91;5005054;28;20033;-69
2023/08/10 05:06:53;;;;;;;4.13;2.00;;;;;;;-144.48;100.00;62369.91;5006633;28;20060;-69
2023/08/10 05:09:18;;;;;;;9.07;2.33;;;;;;;-144.48;100.00;62369.91;5002086;28;20041;-68
2023/08/10 05:11:44;;;;;;;5.60;2.22;;;;;;;-144.48;100.00;62369.91;4998290;28;20023;-68
2023/08/10 05:14:09;;;;;;;8.77;1.88;;;;;;;-144.48;100.00;62369.91;5000447;28;20099;-69
2023/08/10 05:16:34;;;;;;;4.78;2.20;;;;;;;-144.48;100.00;62369.91;5000312;28;20491;-68
2023/08/10 05:19:00;;;;;;;4.60;1.98;;;;;;;-144.48;100.00;62369.91;5005818;28;20068;-70
2023/08/10 05:21:25;;;;;;;6.45;1.70;;;;;;;-144.48;100.00;62369.91;5002704;28;20021;-68
2023/08/10 05:23:51;;;;;;;3.65;1.75;;;;;;;-144.48;100.00;62369.91;5004629;28;20472;-68
2023/08/10 05:26:16;;;;;;;6.18;1.85;;;;;;;-144.48;100.00;62369.91;5002515;28;20026;-68
2023/08/10 05:28:41;;;;;;;6.95;2.03;;;;;;;-144.48;100.00;62369.91;5002731;28;20021;-69
2023/08/10 05:31:07;;;;;;;4.15;1.63;;;;;;;-144.48;100.00;62369.91;5004422;28;20022;-69
2023/08/10 05:33:32;;;;;;;7.97;2.10;;;;;;;-144.48;100.00;62369.91;4999089;28;20037;-70
2023/08/10 05:35:57;;;;;;;8.32;2.28;;;;;;;-144.48;100.00;62369.91;5001721;28;20066;-67
2023/08/10 05:38:25;;;;;;;4.35;2.00;;;;;;;-144.48;100.00;62369.91;5005393;28;20034;-66
2023/08/10 05:40:50;;;;;;;3.40;1.42;;;;;;;-144.48;100.00;62369.91;5003388;28;20026;-69
2023/08/10 05:43:16;;;;;;;9.65;1.85;;;;;;;-144.48;100.00;62369.91;5002732;28;20061;-68
2023/08/10 05:45:41;;;;;;;5.57;1.55;;;;;;;-144.48;100.00;62369.91;4999219;28;20022;-70
2023/08/10 05:48:11;;;;;;;4.07;1.60;;;;;;;-144.48;100.00;62369.91;5002735;28;20056;-67
2023/08/10 05:50:37;;;;;;;6.75;1.90;;;;;;;-144.48;100.00;62369.91;5001238;28;20045;-69
2023/08/10 05:53:03;;;;;;;3.85;1.85;;;;;;;-144.48;100.00;62369.91;5017068;28;20021;-68
2023/08/10 05:55:28;;;;;;;9.57;1.73;;;;;;;-144.48;100.00;62369.91;5001684;28;20029;-66
2023/08/10 05:57:54;;;;;;;6.15;1.95;;;;;;;-144.48;100.00;62369.91;5003652;28;20022;-70
2023/08/10 06:00:19;;;;;;;4.50;1.60;;;;;;;-144.48;100.00;62369.91;5001989;28;20026;-68
2023/08/10 06:02:45;;;;;;;4.13;1.70;;;;;;;-144.48;100.00;62369.91;5001968;28;20022;-69
2023/08/10 06:05:12;;;;;;;4.72;1.85;;;;;;;-144.48;100.00;62369.91;5000338;28;20029;-69
2023/08/10 06:07:37;;;;;;;3.63;1.73;;;;;;;-144.48;100.00;62369.91;5005958;28;20022;-66
2023/08/10 06:10:04;;;;;;;7.70;1.88;;;;;;;-144.48;100.00;62369.91;5005192;28;20081;-65
2023/08/10 06:12:31;;;;;;;6.97;1.92;;;;;;;-144.48;100.00;62369.91;5000701;28;20113;-68
2023/08/10 06:14:57;;;;;;;5.68;2.35;;;;;;;-144.48;100.00;62369.91;5002577;28;20439;-67
2023/08/10 06:17:23;;;;;;;3.25;1.63;;;;;;;-144.48;100.00;62369.91;5000888;28;20568;-66
2023/08/10 06:19:53;;;;;;;6.93;2.00;;;;;;;-144.48;100.00;62369.91;5004031;28;20065;-66
2023/08/10 06:22:20;;;;;;;4.72;1.63;;;;;;;-144.48;100.00;62369.91;5002442;28;20029;-70
2023/08/10 06:24:46;;;;;;;6.45;2.15;;;;;;;-144.48;100.00;62369.91;4999416;28;20132;-67
2023/08/10 06:27:11;;;;;;;5.25;1.80;;;;;;;-144.48;100.00;62369.91;4999900;28;20510;-69
2023/08/10 06:29:37;;;;;;;7.65;1.95;;;;;;;-144.48;100.00;62369.91;5000958;28;20028;-68
2023/08/10 06:32:05;;;;;;;6.45;2.17;;;;;;;-144.48;100.00;62369.91;5001932;28;20018;-68
2023/08/10 06:34:30;;;;;;;7.10;2.10;;;;;;;-144.48;100.00;62369.91;5003152;28;20033;-68
2023/08/10 06:36:55;;;;;;;6.97;1.40;;;;;;;-144.48;100.00;62369.91;4999776;28;20263;-68
2023/08/10 06:39:21;;;;;;;4.20;1.65;;;;;;;-144.48;100.00;62369.91;5005630;28;20018;-70
2023/08/10 06:41:47;;;;;;;10.07;1.92;;;;;;;-144.48;100.00;62369.91;5001989;28;20021;-69
2023/08/10 06:44:13;;;;;;;8.30;2.10;;;;;;;-144.48;100.00;62369.91;5001455;28;20040;-69
2023/08/10 06:46:38;;;;;;;7.78;1.98;;;;;;;-144.48;100.00;62369.91;4995843;28;20129;-72
2023/08/10 06:49:03;;;;;;;8.18;1.52;;;;;;;-144.48;100.00;62369.91;5004993;28;20519;-68
2023/08/10 06:51:29;;;;;;;4.38;2.00;;;;;;;-144.48;100.00;62369.91;5009404;28;20025;-69
2023/08/10 06:53:54;;;;;;;6.22;2.35;;;;;;;-144.48;100.00;62369.91;5002577;28;20595;-70
2023/08/10 06:56:20;;;;;;;6.00;2.10;;;;;;;-144.48;100.00;62369.91;5007641;28;20025;-70
2023/08/10 06:58:45;;;;;;;3.80;1.75;;;;;;;-144.48;100.00;62369.91;5010054;28;20032;-68
2023/08/10 07:01:11;;;;;;;4.55;2.03;;;;;;;-144.48;100.00;62369.91;5009851;28;20025;-69
2023/08/10 07:03:37;;;;;;;6.20;2.00;;;;;;;-144.48;100.00;62369.91;5009032;28;20129;-68
2023/08/10 07:06:05;;;;;;;4.40;1.90;;;;;;;-144.48;100.00;62369.91;5008378;28;20033;-70
2023/08/10 07:08:30;;;;;;;4.73;1.80;;;;;;;-144.48;100.00;62369.91;5008839;28;20614;-69
2023/08/10 07:10:55;;;;;;;7.90;2.13;;;;;;;-144.48;100.00;62369.91;5009342;28;20058;-70
2023/08/10 07:13:21;;;;;;;3.55;1.70;;;;;;;-144.48;100.00;62369.91;5002456;28;20030;-69
2023/08/10 07:15:46;;;;;;;7.97;2.00;;;;;;;-144.48;100.00;62369.91;4998882;28;20116;-66
2023/08/10 07:18:13;;;;;;;6.75;2.10;;;;;;;-144.48;100.00;62369.91;5009035;28;20029;-68
2023/08/10 07:20:40;;;;;;;4.75;2.08;;;;;;;-144.48;100.00;62369.91;5004916;28;20029;-67
2023/08/10 07:23:05;;;;;;;8.88;2.08;;;;;;;-144.48;100.00;62369.91;5009419;28;20060;-69
2023/08/10 07:25:32;;;;;;;4.72;1.60;;;;;;;-144.48;100.00;62369.91;5009837;28;20104;-69
2023/08/10 07:27:57;;;;;;;6.25;1.90;;;;;;;-144.48;100.00;62369.91;5004735;28;20033;-65
2023/08/10 07:30:22;;;;;;;7.40;1.90;;;;;;;-144.48;100.00;62369.91;4997574;28;20034;-65
2023/08/10 07:32:48;;;;;;;3.20;1.67;;;;;;;-144.48;100.00;62369.91;5009622;28;20030;-70
2023/08/10 07:35:13;;;;;;;3.33;1.83;;;;;;;-144.48;100.00;62369.91;5008000;28;20038;-68
2023/08/10 07:37:40;;;;;;;5.55;1.83;;;;;;;-144.48;100.00;62369.91;5008907;28;20030;-66
2023/08/10 07:40:09;;;;;;;4.20;1.65;;;;;;;-144.48;100.00;62369.91;5009207;28;20058;-68
2023/08/10 07:42:34;;;;;;;6.47;2.10;;;;;;;-144.48;100.00;62369.91;5008909;28;20050;-69
2023/08/10 07:45:00;;;;;;;4.22;1.67;;;;;;;-144.48;100.00;62369.91;5007978;28;20026;-68
2023/08/10 07:47:25;;;;;;;2.47;1.60;;;;;;;-144.48;100.00;62369.91;5011609;22;20069;-66
2023/08/10 07:49:51;;;;;;;6.32;2.60;;;;;;;-144.48;100.00;62369.91;4998380;28;20072;-71
2023/08/10 07:52:16;;;;;;;5.55;1.80;;;;;;;-144.48;100.00;62369.91;5001912;28;20372;-68
2023/08/10 07:54:42;;;;;;;3.83;1.67;;;;;;;-144.48;100.00;62369.91;4994208;28;20053;-66
2023/08/10 07:57:07;;;;;;;6.07;2.03;;;;;;;-144.48;100.00;62369.91;4988330;28;20034;-70
2023/08/10 07:59:32;;;;;;;8.70;1.73;;;;;;;-144.48;100.00;62369.91;4990433;28;20167;-71
2023/08/10 08:01:58;;;;;;;4.35;2.03;;;;;;;-144.48;100.00;62369.91;5007131;28;20125;-71
2023/08/10 08:04:23;;;;;;;5.45;2.20;;;;;;;-144.48;100.00;62369.91;5006775;28;20105;-70
2023/08/10 08:06:49;;;;;;;9.02;1.92;;;;;;;-144.48;100.00;62369.91;5007746;28;20026;-69
2023/08/10 08:09:15;;;;;;;5.03;1.60;;;;;;;-144.48;100.00;62369.91;5009604;28;20030;-68
2023/08/10 08:11:41;;;;;;;11.77;1.80;;;;;;;-144.48;100.00;62369.91;5012617;28;20432;-72
2023/08/10 08:14:07;;;;;;;5.72;1.70;;;;;;;-144.48;100.00;62369.91;5011584;28;20460;-71
2023/08/10 08:16:32;;;;;;;4.82;1.85;;;;;;;-144.48;100.00;62369.91;5011959;28;20104;-70
2023/08/10 08:18:58;;;;;;;4.32;1.85;;;;;;;-144.48;100.00;62369.91;5011429;28;20116;-72
2023/08/10 08:21:25;;;;;;;4.45;1.70;;;;;;;-144.48;100.00;62369.91;5011734;28;20129;-71
2023/08/10 08:23:52;;;;;;;6.55;1.73;;;;;;;-144.48;100.00;62369.91;5011225;28;20091;-70
2023/08/10 08:26:19;;;;;;;7.82;1.95;;;;;;;-144.48;100.00;62369.91;5012468;28;20095;-71
2023/08/10 08:28:46;;;;;;;3.88;1.88;;;;;;;-144.48;100.00;62369.91;5002321;28;20045;-68
2023/08/10 08:31:12;;;;;;;6.40;1.80;;;;;;;-144.48;100.00;62369.91;5002017;28;20034;-67
2023/08/10 08:33:39;;;;;;;11.80;2.20;;;;;;;-144.48;100.00;62369.91;5004071;28;20021;-70
2023/08/10 08:36:05;;;;;;;3.25;1.65;;;;;;;-144.48;100.00;62369.91;5006200;28;20087;-69
2023/08/10 08:38:32;;;;;;;5.10;1.83;;;;;;;-144.48;100.00;62369.91;5011374;28;20425;-71
2023/08/10 08:40:59;;;;;;;17.98;3.67;;;;;;;-144.48;100.00;62369.91;5010155;28;20045;-71
2023/08/10 08:43:25;;;;;;;5.18;1.95;;;;;;;-144.48;100.00;62369.91;5010701;28;20041;-67
2023/08/10 08:45:51;;;;;;;5.38;2.08;;;;;;;-144.48;100.00;62369.91;5010939;28;20026;-71
2023/08/10 08:48:17;;;;;;;8.70;2.13;;;;;;;-144.48;100.00;62369.91;5010523;28;20121;-71
2023/08/10 08:50:46;;;;;;;8.55;2.00;;;;;;;-144.48;100.00;62369.91;5009330;28;20113;-71
2023/08/10 08:53:13;;;;;;;5.85;2.10;;;;;;;-144.48;100.00;62369.91;5008134;28;20088;-69
2023/08/10 08:55:39;;;;;;;10.25;2.30;;;;;;;-144.48;100.00;62369.91;5011135;28;20030;-69
2023/08/10 08:58:05;;;;;;;5.78;2.10;;;;;;;-144.48;100.00;62369.91;5006146;28;20047;-70
2023/08/10 09:00:32;;;;;;;6.05;2.05;;;;;;;-144.48;100.00;62369.91;5001279;28;20104;-71
2023/08/10 09:02:58;;;;;;;5.05;1.90;;;;;;;-144.48;100.00;62369.91;5002856;28;20078;-69
2023/08/10 09:05:24;;;;;;;5.28;2.33;;;;;;;-144.48;100.00;62369.91;5003565;28;20037;-71
2023/08/10 09:07:53;;;;;;;5.30;1.90;;;;;;;-144.48;100.00;62369.91;5003937;28;20032;-70
2023/08/10 09:10:20;;;;;;;6.82;2.40;;;;;;;-144.48;100.00;62369.91;5007323;28;20022;-72
2023/08/10 09:12:47;;;;;;;7.83;2.57;;;;;;;-144.48;100.00;62369.91;5010174;28;20022;-69
2023/08/10 09:15:14;;;;;;;5.55;2.58;;;;;;;-144.48;100.00;62369.91;5009644;28;20487;-67
2023/08/10 09:17:49;;;;;;;4.18;2.08;;;;;;;-144.48;100.00;62369.91;5008752;28;20065;-71
2023/08/10 09:20:19;;;;;;;8.30;2.30;;;;;;;-144.48;100.00;62369.91;5012079;28;20582;-71
2023/08/10 09:22:46;;;;;;;4.88;2.40;;;;;;;-144.48;100.00;62369.91;5009985;28;20634;-69
2023/08/10 09:25:11;;;;;;;6.32;2.42;;;;;;;-144.48;100.00;62369.91;5009315;28;20037;-69
2023/08/10 09:27:36;;;;;;;5.85;2.55;;;;;;;-144.48;100.00;62369.91;5009227;28;20030;-71
2023/08/10 09:30:07;;;;;;;4.50;2.20;;;;;;;-144.48;100.00;62369.91;5009057;28;20061;-68
2023/08/10 09:32:34;;;;;;;7.78;3.22;;;;;;;-144.48;100.00;62369.91;5009398;28;20163;-70
2023/08/10 09:34:59;;;;;;;6.55;2.70;;;;;;;-144.48;100.00;62369.91;5004541;28;20054;-68
2023/08/10 09:37:25;;;;;;;4.85;2.50;;;;;;;-144.48;100.00;62369.91;5009413;28;20025;-69
2023/08/10 09:40:05;;;;;;;16.10;2.90;;;;;;;-144.48;100.00;62369.91;5010212;28;20057;-67
2023/08/10 09:42:32;;;;;;;6.30;2.53;;;;;;;-144.48;100.00;62369.91;5012881;28;20036;-70
2023/08/10 09:45:04;;;;;;;7.90;2.60;;;;;;;-144.48;100.00;62369.91;5009216;28;20591;-71
2023/08/10 09:47:34;;;;;;;9.70;3.10;;;;;;;-144.48;100.00;62369.91;5009757;28;20105;-71
2023/08/10 09:50:05;;;;;;;8.25;2.33;;;;;;;-144.48;100.00;62369.91;5009046;28;20041;-70
2023/08/10 09:52:31;;;;;;;5.82;2.25;;;;;;;-144.48;100.00;62369.91;5009773;28;20486;-70
2023/08/10 09:54:57;;;;;;;10.55;2.72;;;;;;;-144.48;100.00;62369.91;5008743;28;20140;-70
2023/08/10 09:57:25;;;;;;;4.55;2.05;;;;;;;-144.48;100.00;62369.91;5007421;28;20113;-66
2023/08/10 09:59:51;;;;;;;8.30;2.17;;;;;;;-144.48;100.00;62369.91;5008357;28;20111;-70
2023/08/10 10:02:18;;;;;;;4.55;2.25;;;;;;;-144.48;100.00;62369.91;5004780;28;20026;-69
2023/08/10 10:04:45;;;;;;;5.85;2.35;;;;;;;-144.48;100.00;62369.91;5008835;28;20038;-69
2023/08/10 10:07:11;;;;;;;8.02;2.38;;;;;;;-144.48;100.00;62369.91;5007095;28;20080;-68
2023/08/10 10:09:39;;;;;;;11.40;2.60;;;;;;;-144.48;100.00;62369.91;5007499;28;20117;-71
2023/08/10 10:12:10;;;;;;;4.57;1.98;;;;;;;-144.48;100.00;62369.91;5007994;28;20086;-70
2023/08/10 10:14:39;;;;;;;4.32;2.13;;;;;;;-144.48;100.00;62369.91;5003823;28;20112;-69
2023/08/10 10:17:06;;;;;;;6.13;2.20;;;;;;;-144.48;100.00;62369.91;5007083;28;20121;-69
2023/08/10 10:19:33;;;;;;;11.65;2.22;;;;;;;-144.48;100.00;62369.91;5008885;28;20499;-69
2023/08/10 10:21:59;;;;;;;6.45;2.33;;;;;;;-144.48;100.00;62369.91;5003348;28;20075;-69
2023/08/10 10:24:28;;;;;;;11.30;2.58;;;;;;;-144.48;100.00;62369.91;4994979;28;20499;-69
2023/08/10 10:27:11;;;;;;;4.75;2.10;;;;;;;-144.48;100.00;62369.91;5013267;28;20030;-69
2023/08/10 10:29:52;;;;;;;11.30;2.20;;;;;;;-144.48;100.00;62369.91;5001390;28;20049;-66
2023/08/10 10:32:19;;;;;;;8.77;2.95;;;;;;;-144.48;100.00;62369.91;4998486;28;20101;-69
2023/08/10 10:34:45;;;;;;;5.07;2.08;;;;;;;-144.48;100.00;62369.91;5000402;28;20030;-69
2023/08/10 10:37:20;;;;;;;8.13;2.83;;;;;;;-144.48;100.00;62369.91;5000654;28;20436;-68
2023/08/10 10:39:49;;;;;;;7.05;2.25;;;;;;;-144.48;100.00;62369.91;5002635;28;20041;-70
2023/08/10 10:42:19;;;;;;;4.82;2.15;;;;;;;-144.48;100.00;62369.91;5002939;28;20116;-70
2023/08/10 10:45:14;;;;;;;7.80;2.33;;;;;;;-144.48;100.00;62369.91;5018550;28;20022;-69
2023/08/10 10:47:42;;;;;;;7.47;2.55;;;;;;;-144.48;100.00;62369.91;5010548;28;20162;-68
2023/08/10 10:50:25;;;;;;;6.82;2.22;;;;;;;-144.48;100.00;62369.91;5000537;28;20049;-70
2023/08/10 10:52:56;;;;;;;7.13;2.05;;;;;;;-144.48;100.00;62369.91;5000847;28;20492;-67
2023/08/10 10:55:36;;;;;;;5.28;1.95;;;;;;;-144.48;100.00;62369.91;5002788;28;20017;-68
2023/08/10 10:58:03;;;;;;;4.25;1.90;;;;;;;-144.48;100.00;62369.91;4999122;28;20025;-68
2023/08/10 11:00:29;;;;;;;8.02;2.10;;;;;;;-144.48;100.00;62369.91;5007037;28;20021;-67
2023/08/10 11:02:55;;;;;;;5.80;2.00;;;;;;;-144.48;100.00;62369.91;5005780;28;20033;-68
2023/08/10 11:05:21;;;;;;;6.63;2.22;;;;;;;-144.48;100.00;62369.91;5005791;28;20104;-71
2023/08/10 11:07:48;;;;;;;4.70;1.83;;;;;;;-144.48;100.00;62369.91;5007838;28;20120;-70